createdAt,value
2022-11-05T00:02:01.847Z,10.05
2022-11-05T00:04:52.400Z,10.03
2022-11-05T00:07:38.757Z,9.92
2022-11-05T00:10:07.941Z,9.80
2022-11-05T00:12:55.401Z,9.83
2022-11-05T00:15:40.944Z,10.05
2022-11-05T00:18:08.764Z,9.94
2022-11-05T00:20:36.540Z,9.97
2022-11-05T00:23:22.261Z,10.05
2022-11-05T00:25:57.101Z,9.93
2022-11-05T00:28:29.048Z,9.73
2022-11-05T00:31:01.350Z,9.80
2022-11-05T00:33:29.102Z,9.78
2022-11-05T00:35:56.679Z,10.00
2022-11-05T00:38:24.785Z,10.06
2022-11-05T00:40:52.461Z,9.93
2022-11-05T00:43:34.141Z,9.93
2022-11-05T00:46:03.283Z,9.68
2022-11-05T00:48:48.443Z,9.53
2022-11-05T00:51:16.124Z,9.48
2022-11-05T00:53:43.847Z,9.64
2022-11-05T00:56:11.654Z,9.64
2022-11-05T00:58:39.428Z,9.68
2022-11-05T01:01:08.776Z,9.76
2022-11-05T01:03:37.143Z,9.95
2022-11-05T01:06:08.081Z,9.91
2022-11-05T01:08:35.809Z,9.64
2022-11-05T01:11:08.964Z,9.51
2022-11-05T01:13:36.702Z,9.57
2022-11-05T01:16:06.635Z,9.71
2022-11-05T01:18:37.791Z,9.96
2022-11-05T01:21:12.151Z,10.10
2022-11-05T01:23:40.186Z,10.17
2022-11-05T01:26:08.175Z,10.55
2022-11-05T01:28:35.927Z,10.40
2022-11-05T01:31:03.649Z,10.32
2022-11-05T01:33:31.673Z,10.49
2022-11-05T01:36:00.789Z,10.08
2022-11-05T01:38:28.622Z,10.05
2022-11-05T01:40:56.420Z,9.96
2022-11-05T01:43:24.696Z,10.01
2022-11-05T01:45:53.859Z,9.77
2022-11-05T01:48:22.817Z,9.71
2022-11-05T01:50:54.754Z,9.70
2022-11-05T01:53:27.874Z,9.67
2022-11-05T01:55:58.922Z,9.66
2022-11-05T01:58:30.824Z,9.75
2022-11-05T02:00:58.896Z,9.81
2022-11-05T02:03:27.643Z,10.03
2022-11-05T02:05:56.589Z,10.20
2022-11-05T02:08:30.383Z,10.28
2022-11-05T02:10:59.219Z,10.79
2022-11-05T02:13:26.951Z,11.09
2022-11-05T02:16:00.185Z,11.24
2022-11-05T02:18:36.011Z,11.31
2022-11-05T02:21:13.318Z,11.43
2022-11-05T02:23:54.826Z,11.54
2022-11-05T02:26:41.317Z,11.57
2022-11-05T02:29:37.477Z,11.64
2022-11-05T02:32:10.857Z,11.70
2022-11-05T02:34:44.665Z,11.70
2022-11-05T02:37:15.541Z,11.76
2022-11-05T02:39:48.262Z,11.69
2022-11-05T02:42:21.037Z,11.59
2022-11-05T02:44:52.986Z,11.60
2022-11-05T02:47:25.302Z,11.57
2022-11-05T02:49:58.293Z,11.62
2022-11-05T02:52:28.449Z,11.62
2022-11-05T02:55:00.809Z,11.63
2022-11-05T02:57:30.213Z,11.51
2022-11-05T03:00:01.989Z,11.37
2022-11-05T03:02:31.435Z,11.39
2022-11-05T03:04:59.734Z,11.31
2022-11-05T03:07:32.909Z,10.55
2022-11-05T03:10:11.646Z,9.89
2022-11-05T03:12:44.454Z,9.61
2022-11-05T03:15:17.785Z,9.51
2022-11-05T03:17:54.619Z,9.63
2022-11-05T03:20:25.162Z,9.77
2022-11-05T03:22:55.592Z,9.80
2022-11-05T03:25:25.649Z,9.85
2022-11-05T03:27:55.484Z,9.90
2022-11-05T03:30:24.921Z,10.01
2022-11-05T03:32:56.981Z,9.77
2022-11-05T03:35:28.218Z,9.58
2022-11-05T03:38:00.441Z,9.61
2022-11-05T03:40:30.752Z,9.87
2022-11-05T03:42:59.040Z,9.60
2022-11-05T03:45:33.761Z,9.36
2022-11-05T03:48:05.151Z,9.27
2022-11-05T03:50:41.073Z,9.27
2022-11-05T03:53:13.267Z,9.31
2022-11-05T03:55:45.670Z,9.30
2022-11-05T03:58:13.668Z,9.53
2022-11-05T04:00:41.628Z,9.50
2022-11-05T04:03:10.909Z,9.72
2022-11-05T04:05:41.215Z,10.24
2022-11-05T04:08:27.092Z,10.71
2022-11-05T04:11:12.614Z,11.06
2022-11-05T04:13:40.230Z,11.21
2022-11-05T04:16:25.570Z,11.43
2022-11-05T04:18:54.599Z,11.57
2022-11-05T04:21:39.940Z,11.51
2022-11-05T04:24:10.438Z,11.53
2022-11-05T04:26:39.263Z,11.58
2022-11-05T04:29:25.113Z,11.52
2022-11-05T04:31:53.395Z,11.49
2022-11-05T04:34:24.361Z,11.39
2022-11-05T04:36:53.174Z,11.31
2022-11-05T04:39:21.833Z,11.31
2022-11-05T04:41:49.556Z,11.24
2022-11-05T04:44:17.364Z,11.15
2022-11-05T04:46:45.101Z,11.22
2022-11-05T04:49:13.046Z,11.35
2022-11-05T04:51:42.453Z,11.09
2022-11-05T04:54:10.383Z,10.86
2022-11-05T04:56:38.302Z,10.70
2022-11-05T04:59:06.243Z,10.55
2022-11-05T05:01:34.418Z,9.95
2022-11-05T05:04:02.223Z,9.72
2022-11-05T05:06:30.042Z,9.43
2022-11-05T05:08:59.193Z,9.32
2022-11-05T05:11:27.105Z,9.24
2022-11-05T05:13:54.831Z,9.14
2022-11-05T05:16:23.461Z,9.15
2022-11-05T05:18:52.923Z,9.03
2022-11-05T05:21:39.011Z,9.07
2022-11-05T05:24:09.782Z,9.00
2022-11-05T05:26:37.955Z,8.97
2022-11-05T05:29:06.307Z,8.85
2022-11-05T05:31:34.384Z,8.90
2022-11-05T05:34:02.404Z,8.91
2022-11-05T05:36:30.347Z,8.78
2022-11-05T05:38:58.256Z,8.73
2022-11-05T05:41:27.413Z,8.70
2022-11-05T05:43:55.159Z,8.75
2022-11-05T05:46:23.000Z,8.79
2022-11-05T05:48:52.881Z,8.81
2022-11-05T05:51:20.552Z,8.72
2022-11-05T05:53:48.691Z,8.71
2022-11-05T05:56:19.299Z,8.63
2022-11-05T05:58:48.670Z,8.70
2022-11-05T06:01:19.691Z,8.70
2022-11-05T06:03:48.331Z,8.64
2022-11-05T06:06:19.513Z,8.62
2022-11-05T06:08:47.394Z,8.67
2022-11-05T06:11:15.134Z,8.71
2022-11-05T06:13:43.571Z,8.63
2022-11-05T06:16:12.624Z,8.63
2022-11-05T06:18:40.583Z,8.67
2022-11-05T06:21:09.144Z,8.66
2022-11-05T06:23:37.647Z,8.71
2022-11-05T06:26:06.719Z,8.74
2022-11-05T06:28:34.791Z,8.89
2022-11-05T06:31:02.798Z,8.62
2022-11-05T06:33:32.207Z,8.70
2022-11-05T06:36:00.534Z,8.83
2022-11-05T06:38:29.241Z,8.99
2022-11-05T06:40:58.882Z,9.00
2022-11-05T06:43:26.489Z,8.95
2022-11-05T06:45:55.395Z,9.08
2022-11-05T06:48:25.187Z,8.88
2022-11-05T06:50:55.384Z,8.99
2022-11-05T06:53:23.282Z,9.13
2022-11-05T06:55:51.319Z,9.24
2022-11-05T06:58:18.912Z,8.94
2022-11-05T07:00:46.917Z,9.00
2022-11-05T07:03:15.233Z,8.89
2022-11-05T07:05:44.776Z,8.89
2022-11-05T07:08:13.764Z,9.29
2022-11-05T07:10:41.519Z,9.47
2022-11-05T07:13:09.479Z,9.59
2022-11-05T07:15:37.539Z,9.43
2022-11-05T07:18:07.576Z,9.41
2022-11-05T07:20:36.157Z,9.79
2022-11-05T07:23:04.584Z,10.10
2022-11-05T07:25:34.825Z,9.51
2022-11-05T07:28:03.118Z,9.48
2022-11-05T07:30:31.223Z,9.67
2022-11-05T07:32:59.117Z,10.11
2022-11-05T07:35:27.743Z,9.94
2022-11-05T07:37:56.060Z,10.40
2022-11-05T07:40:24.786Z,10.85
2022-11-05T07:42:54.632Z,11.15
2022-11-05T07:45:22.395Z,11.32
2022-11-05T07:47:51.064Z,11.74
2022-11-05T07:50:19.564Z,12.11
2022-11-05T07:52:47.947Z,12.27
2022-11-05T07:55:16.232Z,12.45
2022-11-05T07:57:45.024Z,12.43
2022-11-05T08:00:15.836Z,12.35
2022-11-05T08:02:44.388Z,12.57
2022-11-05T08:05:12.337Z,12.50
2022-11-05T08:07:40.228Z,12.71
2022-11-05T08:10:09.590Z,12.96
2022-11-05T08:12:37.339Z,13.19
2022-11-05T08:15:05.401Z,13.43
2022-11-05T08:17:34.542Z,13.43
2022-11-05T08:20:02.125Z,13.71
2022-11-05T08:22:30.391Z,13.93
2022-11-05T08:25:00.397Z,14.12
2022-11-05T08:27:31.972Z,14.31
2022-11-05T08:29:59.610Z,14.40
2022-11-05T08:32:27.417Z,14.40
2022-11-05T08:34:56.584Z,14.05
2022-11-05T08:37:24.468Z,13.35
2022-11-05T08:39:52.172Z,13.13
2022-11-05T08:42:20.242Z,13.13
2022-11-05T08:44:48.160Z,12.91
2022-11-05T08:47:15.940Z,12.66
2022-11-05T08:49:43.540Z,12.65
2022-11-05T08:52:12.721Z,12.99
2022-11-05T08:54:40.402Z,13.31
2022-11-05T08:57:08.074Z,14.01
2022-11-05T08:59:35.771Z,14.59
2022-11-05T09:02:03.994Z,15.49
2022-11-05T09:04:31.799Z,15.55
2022-11-05T09:06:59.552Z,16.70
2022-11-05T09:09:28.539Z,18.08
2022-11-05T09:12:13.127Z,19.23
2022-11-05T09:14:41.138Z,16.88
2022-11-05T09:17:14.448Z,16.45
2022-11-05T09:19:42.174Z,16.89
2022-11-05T09:22:12.741Z,15.87
2022-11-05T09:24:42.295Z,15.79
2022-11-05T09:27:11.923Z,15.42
2022-11-05T09:29:39.549Z,13.06
2022-11-05T09:32:07.727Z,13.30
2022-11-05T09:34:35.798Z,13.76
2022-11-05T09:37:04.134Z,12.99
2022-11-05T09:39:31.765Z,12.42
2022-11-05T09:42:03.655Z,12.63
2022-11-05T09:44:34.738Z,12.58
2022-11-05T09:47:04.269Z,12.16
2022-11-05T09:49:35.184Z,11.17
2022-11-05T09:52:04.498Z,11.24
2022-11-05T09:54:33.315Z,11.86
2022-11-05T09:57:03.392Z,12.38
2022-11-05T09:59:36.138Z,14.01
2022-11-05T10:02:05.233Z,17.14
2022-11-05T10:04:34.012Z,17.96
2022-11-05T10:07:02.835Z,19.74
2022-11-05T10:09:32.275Z,20.73
2022-11-05T10:12:04.257Z,18.98
2022-11-05T10:14:34.954Z,18.77
2022-11-05T10:17:11.565Z,18.14
2022-11-05T10:19:44.277Z,17.44
2022-11-05T10:22:13.715Z,18.26
2022-11-05T10:24:43.222Z,20.17
2022-11-05T10:27:16.345Z,18.11
2022-11-05T10:29:45.723Z,17.91
2022-11-05T10:32:16.836Z,21.44
2022-11-05T10:34:45.241Z,23.54
2022-11-05T10:37:13.116Z,25.95
2022-11-05T10:39:43.232Z,24.86
2022-11-05T10:42:20.724Z,24.70
2022-11-05T10:44:54.411Z,24.32
2022-11-05T10:47:33.668Z,26.78
2022-11-05T10:50:02.354Z,28.58
2022-11-05T10:52:33.962Z,29.23
2022-11-05T10:55:02.543Z,29.55
2022-11-05T10:57:32.771Z,28.47
2022-11-05T11:00:19.045Z,28.82
2022-11-05T11:02:49.237Z,30.38
2022-11-05T11:05:21.487Z,30.61
2022-11-05T11:07:57.743Z,29.40
2022-11-05T11:10:28.640Z,27.56
2022-11-05T11:12:58.623Z,26.77
2022-11-05T11:15:28.824Z,25.88
2022-11-05T11:17:58.259Z,28.15
2022-11-05T11:20:27.991Z,26.69
2022-11-05T11:23:10.957Z,26.70
2022-11-05T11:25:41.437Z,21.97
2022-11-05T11:28:15.338Z,19.63
2022-11-05T11:30:48.107Z,19.38
2022-11-05T11:33:22.331Z,23.19
2022-11-05T11:35:50.081Z,26.19
2022-11-05T11:38:19.027Z,27.71
2022-11-05T11:40:47.279Z,23.26
2022-11-05T11:43:17.511Z,22.04
2022-11-05T11:45:46.992Z,20.21
2022-11-05T11:48:19.213Z,16.20
2022-11-05T11:50:47.950Z,15.10
2022-11-05T11:53:25.944Z,19.37
2022-11-05T11:56:01.355Z,19.76
2022-11-05T11:58:43.760Z,20.46
2022-11-05T12:01:31.433Z,25.63
2022-11-05T12:04:07.541Z,29.82
2022-11-05T12:06:38.540Z,30.54
2022-11-05T12:09:12.796Z,29.91
2022-11-05T12:11:43.167Z,27.65
2022-11-05T12:14:18.701Z,24.93
2022-11-05T12:17:01.867Z,25.61
2022-11-05T12:19:37.756Z,22.43
2022-11-05T12:22:11.850Z,19.29
2022-11-05T12:25:01.048Z,16.72
2022-11-05T12:27:47.914Z,15.68
2022-11-05T12:30:16.818Z,15.51
2022-11-05T12:33:02.495Z,15.17
2022-11-05T12:35:45.714Z,14.93
2022-11-05T12:38:21.914Z,15.33
2022-11-05T12:40:58.970Z,15.49
2022-11-05T12:43:31.251Z,15.38
2022-11-05T12:46:03.516Z,14.76
2022-11-05T12:48:55.322Z,14.38
2022-11-05T12:51:31.187Z,14.30
2022-11-05T12:54:05.595Z,14.38
2022-11-05T12:56:37.862Z,14.70
2022-11-05T12:59:12.012Z,14.93
2022-11-05T13:01:42.978Z,14.98
2022-11-05T13:04:15.744Z,15.06
2022-11-05T13:06:48.243Z,15.57
2022-11-05T13:09:19.321Z,15.78
2022-11-05T13:11:51.699Z,15.20
2022-11-05T13:14:22.668Z,14.96
2022-11-05T13:16:51.686Z,15.08
2022-11-05T13:19:22.354Z,15.39
2022-11-05T13:21:54.133Z,15.84
2022-11-05T13:24:23.704Z,15.98
2022-11-05T13:26:54.186Z,16.07
2022-11-05T13:29:24.340Z,16.64
2022-11-05T13:31:54.380Z,17.50
2022-11-05T13:34:22.280Z,17.62
2022-11-05T13:37:11.978Z,17.08
2022-11-05T13:39:46.289Z,16.82
2022-11-05T13:42:45.713Z,16.73
2022-11-05T13:45:25.921Z,16.60
2022-11-05T13:48:02.955Z,16.52
2022-11-05T13:50:46.050Z,16.33
2022-11-05T13:53:26.945Z,16.14
2022-11-05T13:56:02.794Z,16.42
2022-11-05T13:58:50.909Z,16.76
2022-11-05T14:01:27.011Z,16.28
2022-11-05T14:03:56.400Z,15.59
2022-11-05T14:06:26.471Z,15.30
2022-11-05T14:08:58.272Z,15.39
2022-11-05T14:11:28.990Z,15.65
2022-11-05T14:13:58.716Z,15.85
2022-11-05T14:16:27.745Z,15.95
2022-11-05T14:19:15.537Z,16.02
2022-11-05T14:21:48.160Z,15.90
2022-11-05T14:24:25.787Z,15.88
2022-11-05T14:27:12.493Z,15.47
2022-11-05T14:29:43.632Z,14.68
2022-11-05T14:32:25.750Z,13.86
2022-11-05T14:35:01.779Z,12.49
2022-11-05T14:37:31.306Z,11.56
2022-11-05T14:40:04.967Z,11.30
2022-11-05T14:42:32.634Z,11.16
2022-11-05T14:45:03.837Z,11.03
2022-11-05T14:47:33.221Z,11.27
2022-11-05T14:50:05.200Z,11.12
2022-11-05T14:52:33.154Z,11.09
2022-11-05T14:55:02.521Z,11.20
2022-11-05T14:57:49.014Z,11.47
2022-11-05T15:00:32.467Z,11.49
2022-11-05T15:03:01.357Z,11.67
2022-11-05T15:05:39.887Z,11.85
2022-11-05T15:08:28.564Z,11.94
2022-11-05T15:11:03.243Z,11.96
2022-11-05T15:13:32.741Z,12.11
2022-11-05T15:16:00.518Z,12.15
2022-11-05T15:18:31.177Z,12.10
2022-11-05T15:21:00.101Z,11.97
2022-11-05T15:23:30.937Z,11.82
2022-11-05T15:26:04.138Z,11.52
2022-11-05T15:28:34.423Z,11.39
2022-11-05T15:31:03.482Z,11.63
2022-11-05T15:33:32.194Z,11.88
2022-11-05T15:36:11.547Z,12.01
2022-11-05T15:38:56.684Z,12.19
2022-11-05T15:41:34.870Z,12.19
2022-11-05T15:44:02.944Z,12.06
2022-11-05T15:46:31.268Z,11.98
2022-11-05T15:49:00.580Z,11.84
2022-11-05T15:51:28.220Z,11.72
2022-11-05T15:56:49.735Z,11.27
2022-11-05T15:59:20.776Z,11.00
2022-11-05T16:01:49.944Z,10.81
2022-11-05T16:04:20.703Z,10.71
2022-11-05T16:06:51.825Z,10.61
2022-11-05T16:09:24.377Z,10.40
2022-11-05T16:12:20.341Z,10.26
2022-11-05T16:14:58.636Z,10.14
2022-11-05T16:17:27.357Z,10.06
2022-11-05T16:19:55.167Z,10.10
2022-11-05T16:22:23.099Z,10.20
2022-11-05T16:24:51.966Z,10.30
2022-11-05T16:27:22.097Z,10.34
2022-11-05T16:29:51.384Z,10.29
2022-11-05T16:32:25.376Z,10.29
2022-11-05T16:35:01.250Z,10.41
2022-11-05T16:37:30.003Z,10.41
2022-11-05T16:39:58.066Z,10.30
2022-11-05T16:42:40.442Z,10.24
2022-11-05T16:45:12.768Z,10.20
2022-11-05T16:47:40.603Z,9.96
2022-11-05T16:50:26.289Z,9.82
2022-11-05T16:52:55.320Z,9.61
2022-11-05T16:55:23.206Z,9.41
2022-11-05T16:57:54.217Z,9.24
2022-11-05T17:00:22.775Z,9.17
2022-11-05T17:02:50.800Z,9.12
2022-11-05T17:05:20.659Z,9.02
2022-11-05T17:07:48.224Z,8.88
2022-11-05T17:10:16.044Z,8.81
2022-11-05T17:12:44.124Z,8.88
2022-11-05T17:15:21.002Z,8.86
2022-11-05T17:17:48.744Z,8.93
2022-11-05T17:20:23.866Z,9.08
2022-11-05T17:22:51.486Z,9.14
2022-11-05T17:25:19.600Z,9.07
2022-11-05T17:27:47.715Z,8.85
2022-11-05T17:30:19.840Z,8.73
2022-11-05T17:32:47.965Z,8.77
2022-11-05T17:35:15.900Z,8.75
2022-11-05T17:37:43.561Z,8.72
2022-11-05T17:40:14.045Z,8.63
2022-11-05T17:42:42.039Z,8.50
2022-11-05T17:45:10.413Z,8.43
2022-11-05T17:47:39.529Z,8.31
2022-11-05T17:50:08.377Z,8.30
2022-11-05T17:52:37.130Z,8.29
2022-11-05T17:55:04.881Z,8.40
2022-11-05T17:57:33.377Z,8.45
2022-11-05T18:00:01.044Z,8.38
2022-11-05T18:02:29.724Z,8.28
2022-11-05T18:04:59.038Z,8.10
2022-11-05T18:07:26.687Z,7.93
2022-11-05T18:09:54.285Z,7.92
2022-11-05T18:12:22.369Z,7.97
2022-11-05T18:14:49.965Z,8.05
2022-11-05T18:17:17.660Z,8.21
2022-11-05T18:19:45.387Z,8.27
2022-11-05T18:22:16.339Z,8.37
2022-11-05T18:24:44.135Z,8.53
2022-11-05T18:27:11.913Z,8.58
2022-11-05T18:29:40.058Z,8.70
2022-11-05T18:32:07.995Z,8.74
2022-11-05T18:34:36.410Z,8.68
2022-11-05T18:37:04.454Z,8.79
2022-11-05T18:39:33.627Z,8.81
2022-11-05T18:42:01.436Z,8.70
2022-11-05T18:44:29.324Z,8.53
2022-11-05T18:46:58.659Z,8.41
2022-11-05T18:49:26.673Z,8.35
2022-11-05T18:51:54.713Z,8.41
2022-11-05T18:54:22.333Z,8.47
2022-11-05T18:56:51.372Z,8.54
2022-11-05T18:59:38.577Z,8.49
2022-11-05T19:02:08.330Z,8.38
2022-11-05T19:04:36.343Z,8.40
2022-11-05T19:07:05.403Z,8.41
2022-11-05T19:09:33.784Z,8.45
2022-11-05T19:12:03.231Z,8.45
2022-11-05T19:14:31.413Z,8.39
2022-11-05T19:16:59.679Z,8.40
2022-11-05T19:19:28.515Z,8.39
2022-11-05T19:21:56.477Z,8.31
2022-11-05T19:24:24.588Z,8.29
2022-11-05T19:26:52.897Z,8.24
2022-11-05T19:29:22.149Z,8.19
2022-11-05T19:31:50.051Z,8.10
2022-11-05T19:34:19.085Z,8.19
2022-11-05T19:36:46.857Z,8.23
2022-11-05T19:39:15.861Z,8.37
2022-11-05T19:41:43.697Z,8.49
2022-11-05T19:44:11.661Z,8.48
2022-11-05T19:46:41.640Z,8.68
2022-11-05T19:49:12.980Z,8.71
2022-11-05T19:51:40.749Z,8.70
2022-11-05T19:54:09.222Z,8.76
2022-11-05T19:56:38.496Z,8.71
2022-11-05T19:59:07.161Z,8.62
2022-11-05T20:01:35.787Z,8.52
2022-11-05T20:04:06.309Z,8.33
2022-11-05T20:06:40.296Z,8.22
2022-11-05T20:09:27.427Z,8.15
2022-11-05T20:11:56.636Z,8.11
2022-11-05T20:14:25.470Z,8.08
2022-11-05T20:16:53.981Z,7.87
2022-11-05T20:19:23.995Z,7.86
2022-11-05T20:21:51.869Z,7.71
2022-11-05T20:24:24.651Z,7.63
2022-11-05T20:26:53.552Z,7.65
2022-11-05T20:29:21.999Z,7.67
2022-11-05T20:31:50.172Z,7.79
2022-11-05T20:34:18.232Z,7.89
2022-11-05T20:36:48.318Z,7.94
2022-11-05T20:39:16.986Z,8.06
2022-11-05T20:41:45.006Z,8.03
2022-11-05T20:44:13.142Z,8.09
2022-11-05T20:46:41.176Z,8.14
2022-11-05T20:49:09.452Z,8.29
2022-11-05T20:51:37.213Z,8.29
2022-11-05T20:54:06.496Z,8.35
2022-11-05T20:56:35.478Z,8.29
2022-11-05T20:59:03.657Z,8.33
2022-11-05T21:01:32.282Z,8.42
2022-11-05T21:04:00.725Z,8.47
2022-11-05T21:06:28.413Z,8.44
2022-11-05T21:08:56.936Z,8.55
2022-11-05T21:11:26.147Z,8.50
2022-11-05T21:13:53.856Z,8.61
2022-11-05T21:16:22.054Z,8.64
2022-11-05T21:18:50.138Z,8.59
2022-11-05T21:21:23.350Z,8.45
2022-11-05T21:23:51.332Z,8.40
2022-11-05T21:26:19.246Z,8.39
2022-11-05T21:28:49.417Z,8.27
2022-11-05T21:31:17.087Z,8.21
2022-11-05T21:33:44.771Z,8.31
2022-11-05T21:36:13.753Z,8.33
2022-11-05T21:38:42.254Z,8.49
2022-11-05T21:41:12.453Z,8.51
2022-11-05T21:43:41.909Z,8.44
2022-11-05T21:46:13.563Z,8.50
2022-11-05T21:48:41.702Z,8.43
2022-11-05T21:51:28.446Z,8.44
2022-11-05T21:54:13.962Z,8.48
2022-11-05T21:56:59.218Z,8.67
2022-11-05T21:59:44.930Z,8.70
2022-11-05T22:02:15.398Z,8.74
2022-11-05T22:04:44.361Z,8.87
2022-11-05T22:07:13.437Z,8.92
2022-11-05T22:09:41.880Z,8.79
2022-11-05T22:12:10.069Z,8.89
2022-11-05T22:14:38.780Z,8.94
2022-11-05T22:17:07.086Z,9.07
2022-11-05T22:19:37.370Z,8.93
2022-11-05T22:22:06.315Z,9.05
2022-11-05T22:24:38.253Z,8.95
2022-11-05T22:27:08.432Z,9.03
2022-11-05T22:29:36.965Z,9.03
2022-11-05T22:32:05.103Z,9.00
2022-11-05T22:34:33.392Z,8.78
2022-11-05T22:37:03.928Z,8.82
2022-11-05T22:39:31.693Z,8.87
2022-11-05T22:42:02.043Z,8.96
2022-11-05T22:44:33.623Z,9.14
2022-11-05T22:47:02.054Z,9.10
2022-11-05T22:49:30.529Z,9.02
2022-11-05T22:51:59.009Z,8.96
2022-11-05T22:54:33.871Z,8.97
2022-11-05T22:57:05.151Z,8.87
2022-11-05T22:59:33.396Z,8.69
2022-11-05T23:02:05.295Z,8.65
2022-11-05T23:04:36.894Z,8.49
2022-11-05T23:07:27.291Z,8.61
2022-11-05T23:10:14.777Z,8.63
2022-11-05T23:12:44.365Z,8.81
2022-11-05T23:15:34.756Z,8.85
2022-11-05T23:18:20.503Z,8.71
2022-11-05T23:21:05.441Z,8.63
2022-11-05T23:23:50.783Z,8.63
2022-11-05T23:26:37.688Z,8.64
2022-11-05T23:29:05.618Z,8.60
2022-11-05T23:31:52.219Z,8.59
2022-11-05T23:34:19.986Z,8.52
2022-11-05T23:37:05.493Z,8.57
2022-11-05T23:39:35.779Z,8.66
2022-11-05T23:42:26.630Z,8.76
2022-11-05T23:45:14.627Z,8.76
2022-11-05T23:48:00.233Z,8.68
2022-11-05T23:50:28.461Z,8.59
2022-11-05T23:52:56.322Z,8.53
2022-11-05T23:55:24.678Z,8.68
2022-11-05T23:57:53.907Z,8.84
